createdAt,value
2024-02-22T00:00:48.567Z,1.60
2024-02-22T00:03:14.360Z,1.80
2024-02-22T00:05:40.332Z,1.33
2024-02-22T00:08:06.526Z,1.50
2024-02-22T00:10:33.973Z,2.15
2024-02-22T00:12:59.991Z,2.30
2024-02-22T00:15:26.491Z,1.65
2024-02-22T00:17:53.066Z,1.70
2024-02-22T00:20:19.082Z,1.90
2024-02-22T00:22:45.953Z,1.48
2024-02-22T00:25:12.078Z,1.60
2024-02-22T00:27:39.384Z,1.90
2024-02-22T00:30:06.337Z,2.00
2024-02-22T00:32:32.566Z,1.92
2024-02-22T00:34:58.448Z,1.58
2024-02-22T00:37:24.314Z,1.85
2024-02-22T00:39:50.165Z,1.70
2024-02-22T00:42:16.123Z,2.53
2024-02-22T00:44:42.296Z,1.40
2024-02-22T00:47:08.131Z,1.95
2024-02-22T00:49:34.101Z,1.95
2024-02-22T00:51:59.984Z,1.90
2024-02-22T00:54:25.884Z,1.38
2024-02-22T00:56:51.719Z,1.63
2024-02-22T00:59:17.612Z,1.52
2024-02-22T01:01:44.253Z,2.20
2024-02-22T01:04:10.903Z,1.60
2024-02-22T01:06:36.855Z,1.40
2024-02-22T01:09:04.326Z,1.92
2024-02-22T01:11:30.321Z,1.58
2024-02-22T01:13:56.291Z,1.75
2024-02-22T01:16:22.205Z,1.55
2024-02-22T01:18:48.004Z,1.98
2024-02-22T01:21:13.893Z,1.38
2024-02-22T01:23:40.011Z,1.45
2024-02-22T01:26:06.451Z,2.50
2024-02-22T01:28:32.470Z,1.77
2024-02-22T01:30:58.426Z,1.70
2024-02-22T01:33:24.435Z,1.30
2024-02-22T01:35:50.336Z,1.75
2024-02-22T01:38:16.283Z,1.60
2024-02-22T01:40:42.245Z,1.25
2024-02-22T01:43:08.099Z,1.13
2024-02-22T01:45:33.951Z,1.55
2024-02-22T01:47:59.884Z,1.20
2024-02-22T01:50:25.834Z,1.50
2024-02-22T01:52:51.821Z,1.25
2024-02-22T01:55:18.370Z,1.15
2024-02-22T01:57:44.327Z,1.20
2024-02-22T02:00:17.917Z,1.00
2024-02-22T02:02:44.687Z,1.10
2024-02-22T02:05:10.772Z,1.00
2024-02-22T02:07:37.093Z,1.25
2024-02-22T02:10:04.418Z,0.80
2024-02-22T02:12:30.376Z,1.20
2024-02-22T02:14:57.355Z,1.00
2024-02-22T02:17:23.733Z,1.00
2024-02-22T02:19:50.406Z,0.90
2024-02-22T02:22:27.308Z,1.13
2024-02-22T02:25:05.379Z,0.90
2024-02-22T02:27:31.813Z,0.90
2024-02-22T02:29:57.633Z,0.88
2024-02-22T02:32:23.616Z,0.90
2024-02-22T02:34:49.547Z,0.77
2024-02-22T02:37:15.444Z,1.10
2024-02-22T02:39:41.752Z,1.15
2024-02-22T02:42:07.632Z,0.68
2024-02-22T02:44:33.522Z,1.08
2024-02-22T02:46:59.433Z,1.17
2024-02-22T02:49:25.299Z,0.73
2024-02-22T02:51:51.259Z,1.02
2024-02-22T02:54:17.094Z,0.95
2024-02-22T02:56:43.158Z,0.80
2024-02-22T02:59:09.168Z,0.80
2024-02-22T03:01:37.229Z,0.95
2024-02-22T03:04:03.194Z,1.20
2024-02-22T03:06:29.179Z,0.98
2024-02-22T03:08:55.136Z,0.90
2024-02-22T03:11:21.076Z,0.70
2024-02-22T03:13:46.994Z,0.75
2024-02-22T03:16:12.800Z,1.05
2024-02-22T03:18:38.893Z,0.50
2024-02-22T03:21:04.946Z,0.77
2024-02-22T03:23:30.850Z,0.82
2024-02-22T03:25:56.713Z,1.33
2024-02-22T03:28:22.645Z,1.52
2024-02-22T03:30:48.524Z,0.90
2024-02-22T03:33:14.485Z,1.23
2024-02-22T03:35:40.375Z,0.90
2024-02-22T03:38:06.630Z,1.80
2024-02-22T03:40:32.547Z,0.93
2024-02-22T03:42:58.386Z,0.98
2024-02-22T03:45:24.418Z,0.98
2024-02-22T03:47:50.667Z,1.27
2024-02-22T03:50:16.764Z,0.98
2024-02-22T03:52:42.739Z,0.95
2024-02-22T03:55:11.976Z,2.33
2024-02-22T03:57:38.109Z,1.40
2024-02-22T04:00:06.891Z,1.33
2024-02-22T04:02:32.887Z,1.08
2024-02-22T04:04:58.760Z,1.58
2024-02-22T04:07:25.005Z,1.30
2024-02-22T04:09:51.540Z,1.20
2024-02-22T04:12:17.408Z,1.10
2024-02-22T04:14:43.234Z,1.55
2024-02-22T04:17:09.176Z,1.10
2024-02-22T04:19:35.311Z,0.80
2024-02-22T04:22:01.202Z,1.20
2024-02-22T04:24:27.326Z,1.67
2024-02-22T04:26:53.213Z,1.65
2024-02-22T04:29:19.444Z,0.77
2024-02-22T04:31:48.381Z,0.70
2024-02-22T04:34:14.597Z,1.13
2024-02-22T04:36:41.180Z,1.20
2024-02-22T04:39:08.186Z,0.95
2024-02-22T04:41:34.515Z,0.95
2024-02-22T04:44:01.374Z,1.40
2024-02-22T04:46:27.247Z,0.80
2024-02-22T04:48:53.119Z,2.38
2024-02-22T04:51:18.956Z,1.23
2024-02-22T04:53:44.785Z,0.90
2024-02-22T04:56:12.711Z,1.10
2024-02-22T04:58:38.729Z,0.98
2024-02-22T05:01:06.270Z,1.30
2024-02-22T05:03:32.195Z,1.33
2024-02-22T05:05:58.095Z,1.40
2024-02-22T05:08:25.223Z,1.35
2024-02-22T05:10:53.855Z,1.10
2024-02-22T05:13:20.969Z,0.90
2024-02-22T05:15:46.785Z,1.40
2024-02-22T05:18:12.811Z,1.83
2024-02-22T05:20:39.079Z,1.48
2024-02-22T05:23:08.490Z,1.73
2024-02-22T05:25:34.628Z,1.42
2024-02-22T05:28:01.272Z,1.63
2024-02-22T05:30:27.170Z,1.30
2024-02-22T05:32:53.110Z,2.17
2024-02-22T05:35:19.083Z,1.58
2024-02-22T05:37:45.121Z,1.25
2024-02-22T05:40:11.371Z,2.88
2024-02-22T05:42:37.650Z,1.40
2024-02-22T05:45:04.061Z,1.33
2024-02-22T05:47:30.966Z,1.13
2024-02-22T05:49:57.918Z,2.22
2024-02-22T05:52:23.904Z,1.40
2024-02-22T05:55:17.942Z,2.08
2024-02-22T05:57:43.990Z,1.77
2024-02-22T06:00:10.182Z,1.20
2024-02-22T06:02:36.241Z,1.17
2024-02-22T06:05:02.516Z,1.70
2024-02-22T06:07:29.101Z,3.38
2024-02-22T06:09:54.939Z,1.80
2024-02-22T06:12:20.967Z,1.70
2024-02-22T06:14:46.890Z,1.10
2024-02-22T06:17:12.948Z,1.00
2024-02-22T06:19:39.922Z,1.20
2024-02-22T06:22:06.117Z,2.05
2024-02-22T06:24:54.067Z,2.67
2024-02-22T06:27:20.585Z,1.70
2024-02-22T06:29:47.007Z,1.63
2024-02-22T06:32:12.975Z,1.48
2024-02-22T06:34:38.980Z,2.88
2024-02-22T06:37:05.074Z,3.00
2024-02-22T06:39:31.017Z,2.20
2024-02-22T06:41:57.249Z,1.60
2024-02-22T06:44:23.309Z,2.03
2024-02-22T06:46:49.332Z,1.50
2024-02-22T06:49:16.450Z,1.67
2024-02-22T06:51:46.033Z,1.40
2024-02-22T06:54:13.747Z,1.83
2024-02-22T06:56:39.969Z,1.50
2024-02-22T06:59:05.977Z,1.60
2024-02-22T07:01:33.896Z,1.80
2024-02-22T07:04:02.288Z,2.78
2024-02-22T07:06:28.800Z,1.80
2024-02-22T07:08:55.327Z,1.48
2024-02-22T07:11:21.571Z,1.98
2024-02-22T07:13:47.640Z,1.90
2024-02-22T07:16:14.201Z,1.35
2024-02-22T07:18:40.552Z,2.00
2024-02-22T07:21:07.567Z,1.65
2024-02-22T07:23:33.941Z,1.20
2024-02-22T07:26:03.149Z,2.17
2024-02-22T07:28:29.370Z,1.30
2024-02-22T07:30:55.544Z,2.30
2024-02-22T07:33:21.624Z,2.50
2024-02-22T07:35:47.770Z,2.08
2024-02-22T07:38:13.797Z,2.08
2024-02-22T07:40:40.014Z,1.95
2024-02-22T07:43:06.206Z,2.30
2024-02-22T07:45:32.398Z,1.35
2024-02-22T07:47:59.598Z,1.30
2024-02-22T07:50:28.761Z,2.35
2024-02-22T07:52:54.915Z,2.55
2024-02-22T07:55:21.377Z,4.00
2024-02-22T07:57:47.303Z,2.50
2024-02-22T08:00:14.920Z,3.03
2024-02-22T08:02:42.653Z,2.38
2024-02-22T08:05:10.671Z,2.08
2024-02-22T08:07:37.833Z,2.75
2024-02-22T08:10:04.387Z,2.08
2024-02-22T08:12:30.682Z,2.17
2024-02-22T08:14:57.169Z,2.08
2024-02-22T08:17:24.042Z,2.88
2024-02-22T08:19:50.180Z,2.75
2024-02-22T08:22:17.786Z,4.38
2024-02-22T08:24:43.831Z,2.22
2024-02-22T08:27:11.187Z,2.33
2024-02-22T08:29:37.667Z,4.05
2024-02-22T08:32:05.810Z,2.03
2024-02-22T08:34:32.184Z,2.17
2024-02-22T08:36:58.425Z,2.00
2024-02-22T08:39:25.404Z,2.10
2024-02-22T08:41:51.570Z,2.42
2024-02-22T08:44:17.517Z,2.20
2024-02-22T08:46:43.598Z,2.72
2024-02-22T08:49:10.236Z,5.03
2024-02-22T08:51:36.562Z,2.00
2024-02-22T08:54:02.530Z,3.17
2024-02-22T08:56:28.607Z,3.00
2024-02-22T08:58:55.110Z,2.33
2024-02-22T09:01:21.355Z,2.40
2024-02-22T09:03:47.591Z,2.78
2024-02-22T09:06:14.206Z,1.80
2024-02-22T09:08:42.444Z,2.67
2024-02-22T09:11:08.736Z,2.28
2024-02-22T09:13:34.889Z,2.80
2024-02-22T09:16:02.414Z,3.10
2024-02-22T09:18:28.435Z,2.20
2024-02-22T09:20:54.499Z,2.30
2024-02-22T09:23:20.849Z,3.08
2024-02-22T09:25:56.156Z,2.45
2024-02-22T09:28:22.239Z,2.05
2024-02-22T09:30:48.776Z,2.05
2024-02-22T09:33:14.768Z,3.30
2024-02-22T09:35:42.755Z,2.50
2024-02-22T09:38:09.000Z,2.28
2024-02-22T09:40:35.216Z,2.45
2024-02-22T09:43:01.400Z,2.65
2024-02-22T09:45:27.314Z,2.28
2024-02-22T09:47:54.462Z,1.77
2024-02-22T09:50:21.304Z,2.05
2024-02-22T09:52:47.477Z,2.03
2024-02-22T09:55:14.265Z,2.40
2024-02-22T09:57:40.827Z,2.15
2024-02-22T10:00:07.649Z,1.67
2024-02-22T10:02:33.888Z,1.95
2024-02-22T10:05:01.689Z,1.40
2024-02-22T10:07:32.551Z,1.63
2024-02-22T10:12:30.504Z,1.50
2024-02-22T10:14:57.109Z,1.50
2024-02-22T10:17:23.781Z,2.20
2024-02-22T10:20:00.401Z,2.67
2024-02-22T10:22:29.994Z,2.58
2024-02-22T10:25:22.325Z,2.15
2024-02-22T10:27:50.063Z,1.50
2024-02-22T10:30:16.825Z,1.65
2024-02-22T10:32:43.110Z,1.45
2024-02-22T10:35:10.219Z,1.33
2024-02-22T10:37:39.079Z,1.13
2024-02-22T10:40:07.196Z,1.52
2024-02-22T10:42:34.252Z,1.48
2024-02-22T10:45:01.266Z,1.77
2024-02-22T10:47:30.162Z,2.10
2024-02-22T10:49:59.186Z,1.50
2024-02-22T10:52:28.737Z,1.40
2024-02-22T10:55:01.067Z,1.60
2024-02-22T10:57:30.834Z,1.35
2024-02-22T11:00:01.294Z,0.70
2024-02-22T11:02:30.065Z,1.00
2024-02-22T11:05:05.485Z,1.70
2024-02-22T11:07:33.424Z,1.08
2024-02-22T11:10:08.237Z,0.95
2024-02-22T11:12:36.001Z,1.05
2024-02-22T11:15:11.855Z,0.88
2024-02-22T11:17:42.269Z,0.80
2024-02-22T11:20:11.258Z,0.73
2024-02-22T11:22:40.270Z,0.63
2024-02-22T11:25:25.148Z,0.60
2024-02-22T11:27:58.066Z,1.02
2024-02-22T11:30:24.367Z,0.52
2024-02-22T11:32:50.659Z,0.63
2024-02-22T11:35:16.715Z,0.80
2024-02-22T11:37:44.525Z,0.70
2024-02-22T11:40:13.435Z,1.00
2024-02-22T11:42:40.012Z,0.50
2024-02-22T11:45:12.069Z,0.55
2024-02-22T11:47:44.059Z,0.70
2024-02-22T11:50:12.135Z,0.50
2024-02-22T11:55:23.617Z,0.73
2024-02-22T12:00:47.617Z,0.55
2024-02-22T12:13:56.165Z,0.93
2024-02-22T12:16:23.682Z,0.80
2024-02-22T12:18:52.580Z,0.50
2024-02-22T12:21:23.030Z,1.00
2024-02-22T12:23:52.167Z,0.85
2024-02-22T12:26:34.849Z,0.93
2024-02-22T12:29:05.626Z,0.90
2024-02-22T12:32:02.168Z,0.47
2024-02-22T12:37:16.760Z,0.90
2024-02-22T12:39:49.979Z,1.80
2024-02-22T12:42:35.063Z,1.08
2024-02-22T12:45:12.448Z,0.75
2024-02-22T12:47:46.540Z,0.60
2024-02-22T12:58:32.688Z,0.60
2024-02-22T13:09:04.861Z,1.33
2024-02-22T13:19:43.490Z,0.90
2024-02-22T13:30:35.830Z,0.50
2024-02-22T13:41:13.703Z,0.77
2024-02-22T13:46:30.513Z,0.60
2024-02-22T13:49:12.050Z,0.90
2024-02-22T13:51:41.128Z,0.70
2024-02-22T13:57:02.851Z,0.60
2024-02-22T13:59:33.249Z,0.90
2024-02-22T14:07:21.312Z,0.73
2024-02-22T14:15:21.224Z,0.32
2024-02-22T14:17:49.643Z,1.08
2024-02-22T14:20:21.070Z,0.25
2024-02-22T14:22:59.261Z,0.70
2024-02-22T14:25:59.396Z,0.73
2024-02-22T15:45:33.612Z,1.55
2024-02-22T15:50:46.216Z,1.27
2024-02-22T16:25:10.262Z,0.90
2024-02-22T16:33:15.205Z,1.50
2024-02-22T16:41:35.473Z,1.48
2024-02-22T16:44:03.365Z,0.93
2024-02-22T16:49:25.929Z,0.77
2024-02-22T16:54:54.708Z,1.75
2024-02-22T17:00:10.948Z,1.35
2024-02-22T17:02:41.583Z,1.58
2024-02-22T17:05:15.510Z,1.15
2024-02-22T17:07:52.408Z,0.93
2024-02-22T17:24:41.058Z,2.00
2024-02-22T17:27:12.289Z,3.20
2024-02-22T17:32:55.022Z,2.30
2024-02-22T17:38:10.038Z,1.10
2024-02-22T17:44:11.393Z,0.95
2024-02-22T17:49:52.184Z,0.90
2024-02-22T17:52:20.606Z,1.58
2024-02-22T17:54:53.145Z,1.10
2024-02-22T18:42:19.637Z,0.80
2024-02-22T18:44:49.870Z,1.20
2024-02-22T18:47:18.799Z,1.05
2024-02-22T18:52:29.558Z,0.70
2024-02-22T18:55:03.964Z,0.80
2024-02-22T19:00:12.475Z,1.42
2024-02-22T19:02:45.028Z,0.60
2024-02-22T19:05:11.386Z,1.10
2024-02-22T19:11:24.258Z,0.90
2024-02-22T19:13:51.567Z,0.73
2024-02-22T19:16:29.484Z,1.02
2024-02-22T19:21:42.132Z,1.60
2024-02-22T19:24:08.785Z,0.88
2024-02-22T19:26:36.692Z,2.25
2024-02-22T19:29:02.930Z,1.05
2024-02-22T19:35:07.122Z,0.80
2024-02-22T19:37:35.718Z,0.88
2024-02-22T19:40:09.626Z,0.65
2024-02-22T19:42:37.762Z,0.60
2024-02-22T19:45:08.130Z,1.30
2024-02-22T19:47:38.940Z,0.60
2024-02-22T19:50:06.169Z,0.60
2024-02-22T19:52:33.971Z,1.00
2024-02-22T19:55:01.586Z,0.80
2024-02-22T19:57:28.498Z,1.20
2024-02-22T19:59:57.363Z,0.85
2024-02-22T20:02:26.381Z,1.20
2024-02-22T20:04:53.633Z,0.70
2024-02-22T20:07:23.255Z,1.20
2024-02-22T20:10:21.849Z,0.90
2024-02-22T20:12:49.612Z,0.52
2024-02-22T20:15:18.880Z,0.95
2024-02-22T20:17:49.042Z,0.80
2024-02-22T20:20:15.182Z,0.50
2024-02-22T20:22:41.291Z,0.30
2024-02-22T20:25:07.728Z,0.40
2024-02-22T20:27:33.732Z,0.60
2024-02-22T20:30:06.063Z,0.55
2024-02-22T20:32:42.296Z,0.60
2024-02-22T20:35:18.657Z,0.52
2024-02-22T20:37:51.481Z,1.17
2024-02-22T20:40:29.826Z,1.20
2024-02-22T20:42:58.339Z,1.02
2024-02-22T20:45:24.297Z,0.70
2024-02-22T20:47:57.642Z,0.75
2024-02-22T20:50:23.940Z,0.55
2024-02-22T20:52:50.715Z,1.13
2024-02-22T20:55:16.706Z,1.00
2024-02-22T20:57:43.493Z,0.73
2024-02-22T21:00:12.960Z,0.85
2024-02-22T21:02:39.859Z,0.63
2024-02-22T21:05:08.173Z,0.80
2024-02-22T21:07:34.918Z,1.08
2024-02-22T21:10:03.492Z,0.80
2024-02-22T21:12:31.970Z,0.93
2024-02-22T21:14:57.972Z,0.70
2024-02-22T21:17:29.305Z,0.98
2024-02-22T21:19:56.739Z,1.33
2024-02-22T21:22:24.874Z,1.30
2024-02-22T21:24:51.894Z,1.08
2024-02-22T21:27:18.247Z,0.88
2024-02-22T21:29:45.244Z,1.15
2024-02-22T21:32:11.461Z,1.00
2024-02-22T21:34:38.266Z,0.95
2024-02-22T21:37:04.421Z,0.50
2024-02-22T21:39:38.129Z,0.32
2024-02-22T21:42:06.761Z,0.73
2024-02-22T21:44:33.317Z,0.40
2024-02-22T21:46:59.347Z,0.45
2024-02-22T21:49:25.626Z,1.77
2024-02-22T21:51:51.610Z,0.82
2024-02-22T21:54:20.811Z,0.60
2024-02-22T21:56:47.471Z,0.63
2024-02-22T21:59:15.508Z,0.70
2024-02-22T22:01:41.628Z,0.70
2024-02-22T22:04:07.616Z,0.90
2024-02-22T22:06:35.902Z,0.73
2024-02-22T22:09:02.288Z,0.57
2024-02-22T22:11:28.914Z,0.65
2024-02-22T22:13:55.241Z,1.02
2024-02-22T22:16:21.499Z,0.57
2024-02-22T22:18:47.592Z,0.43
2024-02-22T22:21:21.348Z,0.93
2024-02-22T22:23:54.519Z,1.40
2024-02-22T22:26:20.527Z,0.85
2024-02-22T22:28:46.569Z,0.77
2024-02-22T22:31:12.929Z,0.50
2024-02-22T22:33:40.376Z,0.70
2024-02-22T22:36:07.426Z,1.17
2024-02-22T22:38:33.385Z,0.82
2024-02-22T22:40:59.337Z,0.77
2024-02-22T22:43:25.544Z,1.05
2024-02-22T22:45:53.805Z,0.52
2024-02-22T22:48:19.989Z,0.68
2024-02-22T22:50:46.947Z,1.20
2024-02-22T22:53:14.216Z,0.63
2024-02-22T22:55:40.664Z,0.75
2024-02-22T22:58:06.685Z,0.77
2024-02-22T23:00:32.654Z,0.55
2024-02-22T23:02:59.078Z,0.70
2024-02-22T23:05:25.148Z,0.60
2024-02-22T23:07:52.288Z,0.52
2024-02-22T23:10:30.560Z,1.00
2024-02-22T23:12:56.992Z,1.40
2024-02-22T23:15:22.886Z,0.70
2024-02-22T23:17:50.231Z,0.80
2024-02-22T23:20:16.291Z,0.50
2024-02-22T23:22:42.151Z,0.50
2024-02-22T23:25:08.859Z,0.60
2024-02-22T23:27:35.213Z,0.85
2024-02-22T23:30:01.085Z,0.50
2024-02-22T23:32:27.180Z,0.45
2024-02-22T23:34:53.000Z,0.70
2024-02-22T23:37:20.239Z,0.50
2024-02-22T23:39:46.144Z,0.65
2024-02-22T23:42:12.126Z,0.55
2024-02-22T23:44:38.416Z,0.60
2024-02-22T23:47:04.563Z,0.43
2024-02-22T23:49:30.438Z,0.57
2024-02-22T23:51:56.680Z,0.70
2024-02-22T23:54:22.799Z,0.75
2024-02-22T23:56:48.801Z,0.60
2024-02-22T23:59:15.692Z,0.50
